sensor_id;sensor_type;location;lat;lon;timestamp;pressure;altitude;pressure_sealevel;temperature;humidity
77351;BME280;66420;50.246;14.320;2023-04-03T00:00:11;100424.28;;;3.58;68.79
77351;BME280;66420;50.246;14.320;2023-04-03T00:02:56;100429.47;;;3.60;68.54
77351;BME280;66420;50.246;14.320;2023-04-03T00:05:41;100430.94;;;3.50;68.54
77351;BME280;66420;50.246;14.320;2023-04-03T00:08:25;100415.72;;;3.61;68.25
77351;BME280;66420;50.246;14.320;2023-04-03T00:11:10;100428.81;;;3.52;67.60
77351;BME280;66420;50.246;14.320;2023-04-03T00:13:55;100423.84;;;3.61;67.10
77351;BME280;66420;50.246;14.320;2023-04-03T00:16:40;100427.16;;;3.51;66.61
77351;BME280;66420;50.246;14.320;2023-04-03T00:19:25;100434.13;;;3.47;66.74
77351;BME280;66420;50.246;14.320;2023-04-03T00:22:09;100428.44;;;3.49;66.23
77351;BME280;66420;50.246;14.320;2023-04-03T00:24:55;100435.56;;;3.38;66.02
77351;BME280;66420;50.246;14.320;2023-04-03T00:27:40;100434.84;;;3.43;66.71
77351;BME280;66420;50.246;14.320;2023-04-03T00:30:25;100436.84;;;3.36;64.76
77351;BME280;66420;50.246;14.320;2023-04-03T00:33:13;100449.91;;;3.39;64.46
77351;BME280;66420;50.246;14.320;2023-04-03T00:35:58;100450.72;;;3.39;63.50
77351;BME280;66420;50.246;14.320;2023-04-03T00:38:42;100449.00;;;3.33;63.46
77351;BME280;66420;50.246;14.320;2023-04-03T00:41:27;100446.66;;;3.25;64.03
77351;BME280;66420;50.246;14.320;2023-04-03T00:45:21;100453.41;;;3.11;62.35
77351;BME280;66420;50.246;14.320;2023-04-03T00:47:27;100455.00;;;3.12;63.25
77351;BME280;66420;50.246;14.320;2023-04-03T00:50:12;100458.31;;;3.14;62.58
77351;BME280;66420;50.246;14.320;2023-04-03T00:52:57;100462.34;;;3.00;61.54
77351;BME280;66420;50.246;14.320;2023-04-03T00:55:43;100465.03;;;3.00;62.51
77351;BME280;66420;50.246;14.320;2023-04-03T00:58:34;100457.53;;;2.79;62.84
77351;BME280;66420;50.246;14.320;2023-04-03T01:01:24;100462.22;;;2.72;62.30
77351;BME280;66420;50.246;14.320;2023-04-03T01:04:28;100464.47;;;2.51;62.52
77351;BME280;66420;50.246;14.320;2023-04-03T01:07:16;100467.75;;;2.53;62.38
77351;BME280;66420;50.246;14.320;2023-04-03T01:10:05;100470.31;;;2.37;62.43
77351;BME280;66420;50.246;14.320;2023-04-03T01:12:51;100474.41;;;2.39;62.96
77351;BME280;66420;50.246;14.320;2023-04-03T01:15:37;100474.50;;;2.21;62.41
77351;BME280;66420;50.246;14.320;2023-04-03T01:18:24;100477.94;;;2.28;62.76
77351;BME280;66420;50.246;14.320;2023-04-03T01:24:36;100473.53;;;2.04;61.35
77351;BME280;66420;50.246;14.320;2023-04-03T01:27:23;100490.63;;;1.98;61.39
77351;BME280;66420;50.246;14.320;2023-04-03T01:30:08;100487.31;;;1.84;60.53
77351;BME280;66420;50.246;14.320;2023-04-03T01:32:53;100494.41;;;1.97;62.38
77351;BME280;66420;50.246;14.320;2023-04-03T01:35:38;100505.91;;;1.92;60.55
77351;BME280;66420;50.246;14.320;2023-04-03T01:38:22;100504.66;;;1.76;60.36
77351;BME280;66420;50.246;14.320;2023-04-03T01:41:08;100506.91;;;1.61;60.52
77351;BME280;66420;50.246;14.320;2023-04-03T01:43:52;100507.97;;;1.78;60.79
77351;BME280;66420;50.246;14.320;2023-04-03T01:46:37;100506.91;;;1.61;60.27
77351;BME280;66420;50.246;14.320;2023-04-03T01:49:22;100510.69;;;1.60;61.18
77351;BME280;66420;50.246;14.320;2023-04-03T01:52:07;100514.44;;;1.41;61.53
77351;BME280;66420;50.246;14.320;2023-04-03T01:54:51;100512.31;;;1.43;61.46
77351;BME280;66420;50.246;14.320;2023-04-03T01:57:36;100519.22;;;1.39;60.60
77351;BME280;66420;50.246;14.320;2023-04-03T02:00:21;100521.91;;;1.39;59.94
77351;BME280;66420;50.246;14.320;2023-04-03T02:03:06;100517.50;;;1.26;60.22
77351;BME280;66420;50.246;14.320;2023-04-03T02:05:51;100521.88;;;1.27;59.90
77351;BME280;66420;50.246;14.320;2023-04-03T02:08:35;100523.56;;;1.22;58.82
77351;BME280;66420;50.246;14.320;2023-04-03T02:11:20;100523.56;;;1.22;59.75
77351;BME280;66420;50.246;14.320;2023-04-03T02:14:05;100521.91;;;1.03;59.92
77351;BME280;66420;50.246;14.320;2023-04-03T02:16:50;100523.72;;;1.09;59.47
77351;BME280;66420;50.246;14.320;2023-04-03T02:19:35;100524.97;;;1.06;60.75
77351;BME280;66420;50.246;14.320;2023-04-03T02:22:20;100540.03;;;0.96;60.70
77351;BME280;66420;50.246;14.320;2023-04-03T02:25:05;100535.72;;;0.88;59.98
77351;BME280;66420;50.246;14.320;2023-04-03T02:27:49;100538.50;;;0.81;60.31
77351;BME280;66420;50.246;14.320;2023-04-03T02:30:34;100536.50;;;0.70;61.11
77351;BME280;66420;50.246;14.320;2023-04-03T02:33:19;100541.19;;;0.81;61.88
77351;BME280;66420;50.246;14.320;2023-04-03T02:36:06;100547.56;;;0.87;61.00
77351;BME280;66420;50.246;14.320;2023-04-03T02:38:51;100548.16;;;0.64;61.54
77351;BME280;66420;50.246;14.320;2023-04-03T02:41:36;100548.41;;;0.63;61.59
77351;BME280;66420;50.246;14.320;2023-04-03T02:44:21;100547.56;;;0.62;61.52
77351;BME280;66420;50.246;14.320;2023-04-03T02:54:29;100558.16;;;0.57;63.16
77351;BME280;66420;50.246;14.320;2023-04-03T02:57:15;100560.38;;;0.67;62.45
77351;BME280;66420;50.246;14.320;2023-04-03T02:59:59;100559.31;;;0.43;62.31
77351;BME280;66420;50.246;14.320;2023-04-03T03:02:44;100562.06;;;0.36;63.49
77351;BME280;66420;50.246;14.320;2023-04-03T03:05:29;100561.72;;;0.51;62.32
77351;BME280;66420;50.246;14.320;2023-04-03T03:08:14;100564.34;;;0.33;62.81
77351;BME280;66420;50.246;14.320;2023-04-03T03:10:59;100572.56;;;0.44;63.14
77351;BME280;66420;50.246;14.320;2023-04-03T03:13:44;100581.88;;;0.42;63.95
77351;BME280;66420;50.246;14.320;2023-04-03T03:16:29;100571.81;;;0.31;63.41
77351;BME280;66420;50.246;14.320;2023-04-03T03:19:14;100574.53;;;0.31;64.40
77351;BME280;66420;50.246;14.320;2023-04-03T03:21:59;100572.84;;;0.36;63.51
77351;BME280;66420;50.246;14.320;2023-04-03T03:24:44;100580.66;;;0.44;63.83
77351;BME280;66420;50.246;14.320;2023-04-03T03:27:53;100584.41;;;0.37;64.73
77351;BME280;66420;50.246;14.320;2023-04-03T03:30:38;100578.88;;;0.32;63.03
77351;BME280;66420;50.246;14.320;2023-04-03T03:33:22;100584.72;;;0.22;64.41
77351;BME280;66420;50.246;14.320;2023-04-03T03:36:07;100585.19;;;0.13;63.48
77351;BME280;66420;50.246;14.320;2023-04-03T03:38:52;100584.97;;;0.14;64.57
77351;BME280;66420;50.246;14.320;2023-04-03T03:41:37;100592.25;;;0.07;64.89
77351;BME280;66420;50.246;14.320;2023-04-03T03:44:22;100590.22;;;-0.04;64.57
77351;BME280;66420;50.246;14.320;2023-04-03T03:47:07;100592.91;;;0.03;66.03
77351;BME280;66420;50.246;14.320;2023-04-03T03:49:54;100589.59;;;0.00;65.06
77351;BME280;66420;50.246;14.320;2023-04-03T03:52:39;100598.56;;;-0.12;64.35
77351;BME280;66420;50.246;14.320;2023-04-03T03:55:24;100601.63;;;-0.09;64.32
77351;BME280;66420;50.246;14.320;2023-04-03T03:58:09;100601.44;;;-0.14;64.44
77351;BME280;66420;50.246;14.320;2023-04-03T04:00:54;100599.56;;;-0.07;65.19
77351;BME280;66420;50.246;14.320;2023-04-03T04:03:39;100602.50;;;-0.15;64.77
77351;BME280;66420;50.246;14.320;2023-04-03T04:06:24;100601.25;;;-0.12;65.06
77351;BME280;66420;50.246;14.320;2023-04-03T04:09:09;100610.38;;;-0.20;64.97
77351;BME280;66420;50.246;14.320;2023-04-03T04:11:55;100602.13;;;-0.25;65.62
77351;BME280;66420;50.246;14.320;2023-04-03T04:14:39;100602.50;;;-0.15;65.07
77351;BME280;66420;50.246;14.320;2023-04-03T04:17:24;100610.13;;;-0.12;65.03
77351;BME280;66420;50.246;14.320;2023-04-03T04:20:10;100611.41;;;-0.14;65.33
77351;BME280;66420;50.246;14.320;2023-04-03T04:22:55;100612.06;;;-0.32;66.24
77351;BME280;66420;50.246;14.320;2023-04-03T04:25:40;100616.84;;;-0.34;65.81
77351;BME280;66420;50.246;14.320;2023-04-03T04:32:06;100619.94;;;-0.30;65.56
77351;BME280;66420;50.246;14.320;2023-04-03T04:34:51;100627.41;;;-0.32;66.47
77351;BME280;66420;50.246;14.320;2023-04-03T04:37:35;100631.16;;;-0.47;66.01
77351;BME280;66420;50.246;14.320;2023-04-03T04:40:20;100638.59;;;-0.42;66.40
77351;BME280;66420;50.246;14.320;2023-04-03T04:43:06;100646.47;;;-0.54;66.52
77351;BME280;66420;50.246;14.320;2023-04-03T04:46:03;100649.38;;;-0.55;67.27
77351;BME280;66420;50.246;14.320;2023-04-03T04:48:49;100651.84;;;-0.54;66.85
77351;BME280;66420;50.246;14.320;2023-04-03T04:51:33;100649.34;;;-0.49;66.72
77351;BME280;66420;50.246;14.320;2023-04-03T04:54:19;100658.88;;;-0.53;67.48
77351;BME280;66420;50.246;14.320;2023-04-03T04:57:03;100658.41;;;-0.36;67.39
77351;BME280;66420;50.246;14.320;2023-04-03T04:59:48;100655.56;;;-0.48;67.88
77351;BME280;66420;50.246;14.320;2023-04-03T05:02:33;100663.81;;;-0.43;68.21
77351;BME280;66420;50.246;14.320;2023-04-03T05:05:17;100665.88;;;-0.45;67.50
77351;BME280;66420;50.246;14.320;2023-04-03T05:08:03;100663.63;;;-0.48;67.06
77351;BME280;66420;50.246;14.320;2023-04-03T05:10:48;100664.44;;;-0.41;68.03
77351;BME280;66420;50.246;14.320;2023-04-03T05:13:33;100664.44;;;-0.41;67.32
77351;BME280;66420;50.246;14.320;2023-04-03T05:16:17;100677.03;;;-0.35;68.02
77351;BME280;66420;50.246;14.320;2023-04-03T05:19:02;100671.06;;;-0.37;67.83
77351;BME280;66420;50.246;14.320;2023-04-03T05:21:48;100670.25;;;-0.44;67.80
77351;BME280;66420;50.246;14.320;2023-04-03T05:24:32;100684.50;;;-0.37;67.19
77351;BME280;66420;50.246;14.320;2023-04-03T05:27:18;100681.19;;;-0.32;67.92
77351;BME280;66420;50.246;14.320;2023-04-03T05:30:02;100688.44;;;-0.33;67.37
77351;BME280;66420;50.246;14.320;2023-04-03T05:32:48;100686.78;;;-0.34;67.50
77351;BME280;66420;50.246;14.320;2023-04-03T05:35:35;100687.56;;;-0.27;68.62
77351;BME280;66420;50.246;14.320;2023-04-03T05:38:21;100687.38;;;-0.32;67.77
77351;BME280;66420;50.246;14.320;2023-04-03T05:41:06;100692.75;;;-0.25;67.98
77351;BME280;66420;50.246;14.320;2023-04-03T05:43:50;100698.13;;;-0.25;67.36
77351;BME280;66420;50.246;14.320;2023-04-03T05:46:35;100696.25;;;-0.18;67.69
77351;BME280;66420;50.246;14.320;2023-04-03T05:49:20;100693.97;;;-0.15;67.43
77351;BME280;66420;50.246;14.320;2023-04-03T05:52:05;100699.75;;;-0.11;67.65
77351;BME280;66420;50.246;14.320;2023-04-03T05:54:51;100697.25;;;-0.13;67.21
77351;BME280;66420;50.246;14.320;2023-04-03T05:57:35;100696.44;;;-0.07;67.48
77351;BME280;66420;50.246;14.320;2023-04-03T06:00:20;100700.97;;;-0.07;66.69
77351;BME280;66420;50.246;14.320;2023-04-03T06:03:05;100695.81;;;-0.09;66.91
77351;BME280;66420;50.246;14.320;2023-04-03T06:05:50;100706.31;;;0.06;67.07
77351;BME280;66420;50.246;14.320;2023-04-03T06:08:35;100704.66;;;0.05;66.75
77351;BME280;66420;50.246;14.320;2023-04-03T06:11:19;100700.94;;;0.06;65.79
77351;BME280;66420;50.246;14.320;2023-04-03T06:14:05;100697.66;;;0.04;65.22
77351;BME280;66420;50.246;14.320;2023-04-03T06:16:50;100695.75;;;0.11;65.60
77351;BME280;66420;50.246;14.320;2023-04-03T06:19:35;100698.44;;;0.18;65.63
77351;BME280;66420;50.246;14.320;2023-04-03T06:22:20;100710.63;;;0.20;65.04
77351;BME280;66420;50.246;14.320;2023-04-03T06:25:05;100717.84;;;0.26;65.73
77351;BME280;66420;50.246;14.320;2023-04-03T06:27:50;100718.88;;;0.32;65.51
77351;BME280;66420;50.246;14.320;2023-04-03T06:30:34;100717.47;;;0.16;66.21
77351;BME280;66420;50.246;14.320;2023-04-03T06:33:19;100715.38;;;0.25;65.02
77351;BME280;66420;50.246;14.320;2023-04-03T06:36:05;100724.28;;;0.19;65.72
77351;BME280;66420;50.246;14.320;2023-04-03T06:38:50;100729.94;;;0.04;64.85
77351;BME280;66420;50.246;14.320;2023-04-03T06:41:34;100728.78;;;0.38;65.48
77351;BME280;66420;50.246;14.320;2023-04-03T06:44:19;100730.63;;;0.44;64.29
77351;BME280;66420;50.246;14.320;2023-04-03T06:47:04;100736.53;;;0.15;63.64
77351;BME280;66420;50.246;14.320;2023-04-03T06:49:49;100743.88;;;0.46;64.16
77351;BME280;66420;50.246;14.320;2023-04-03T06:52:34;100745.09;;;0.50;63.76
77351;BME280;66420;50.246;14.320;2023-04-03T06:55:19;100746.34;;;0.47;63.09
77351;BME280;66420;50.246;14.320;2023-04-03T06:58:04;100752.53;;;0.54;62.75
77351;BME280;66420;50.246;14.320;2023-04-03T07:00:49;100744.59;;;0.66;63.25
77351;BME280;66420;50.246;14.320;2023-04-03T07:03:34;100748.75;;;0.62;62.81
77351;BME280;66420;50.246;14.320;2023-04-03T07:06:20;100746.84;;;0.31;63.21
77351;BME280;66420;50.246;14.320;2023-04-03T07:09:04;100747.16;;;0.48;64.24
77351;BME280;66420;50.246;14.320;2023-04-03T07:11:49;100742.19;;;0.89;63.89
77351;BME280;66420;50.246;14.320;2023-04-03T07:14:34;100747.88;;;0.74;63.84
77351;BME280;66420;50.246;14.320;2023-04-03T07:17:18;100753.72;;;0.65;63.48
77351;BME280;66420;50.246;14.320;2023-04-03T07:20:04;100758.34;;;0.51;62.34
77351;BME280;66420;50.246;14.320;2023-04-03T07:27:53;100751.47;;;0.55;62.69
77351;BME280;66420;50.246;14.320;2023-04-03T07:30:46;100749.03;;;0.92;62.87
77351;BME280;66420;50.246;14.320;2023-04-03T07:33:31;100755.66;;;0.89;61.69
77351;BME280;66420;50.246;14.320;2023-04-03T07:36:19;100764.72;;;0.63;62.88
77351;BME280;66420;50.246;14.320;2023-04-03T07:39:04;100763.38;;;1.17;62.70
77351;BME280;66420;50.246;14.320;2023-04-03T07:41:51;100765.06;;;1.11;61.43
77351;BME280;66420;50.246;14.320;2023-04-03T07:44:35;100766.16;;;1.35;61.77
77351;BME280;66420;50.246;14.320;2023-04-03T07:47:21;100766.94;;;1.11;61.26
77351;BME280;66420;50.246;14.320;2023-04-03T07:50:06;100771.63;;;1.22;61.37
77351;BME280;66420;50.246;14.320;2023-04-03T07:52:51;100772.16;;;1.37;60.25
77351;BME280;66420;50.246;14.320;2023-04-03T07:55:38;100767.09;;;1.16;59.44
77351;BME280;66420;50.246;14.320;2023-04-03T07:58:27;100774.44;;;1.02;59.38
77351;BME280;66420;50.246;14.320;2023-04-03T08:01:11;100778.25;;;1.26;59.41
77351;BME280;66420;50.246;14.320;2023-04-03T08:03:56;100770.56;;;1.54;59.41
77351;BME280;66420;50.246;14.320;2023-04-03T08:06:41;100775.13;;;1.54;59.21
77351;BME280;66420;50.246;14.320;2023-04-03T08:09:25;100783.41;;;1.59;59.41
77351;BME280;66420;50.246;14.320;2023-04-03T08:12:10;100769.06;;;1.33;59.22
77351;BME280;66420;50.246;14.320;2023-04-03T08:14:56;100769.75;;;1.54;58.19
77351;BME280;66420;50.246;14.320;2023-04-03T08:17:41;100769.59;;;1.42;58.49
77351;BME280;66420;50.246;14.320;2023-04-03T08:20:26;100780.25;;;1.87;59.20
77351;BME280;66420;50.246;14.320;2023-04-03T08:23:11;100773.50;;;1.96;57.28
77351;BME280;66420;50.246;14.320;2023-04-03T08:25:56;100775.91;;;2.04;57.20
77351;BME280;66420;50.246;14.320;2023-04-03T08:28:41;100770.78;;;1.77;57.41
77351;BME280;66420;50.246;14.320;2023-04-03T08:31:25;100783.50;;;1.70;58.12
77351;BME280;66420;50.246;14.320;2023-04-03T08:34:14;100784.00;;;1.86;57.36
77351;BME280;66420;50.246;14.320;2023-04-03T08:36:59;100779.25;;;1.81;56.34
77351;BME280;66420;50.246;14.320;2023-04-03T08:39:44;100787.59;;;1.55;56.90
77351;BME280;66420;50.246;14.320;2023-04-03T08:45:45;100785.88;;;2.03;55.96
77351;BME280;66420;50.246;14.320;2023-04-03T08:48:39;100781.53;;;2.02;55.23
77351;BME280;66420;50.246;14.320;2023-04-03T08:51:26;100788.78;;;2.45;56.89
77351;BME280;66420;50.246;14.320;2023-04-03T08:54:37;100778.50;;;2.35;54.46
77351;BME280;66420;50.246;14.320;2023-04-03T08:57:33;100783.34;;;2.81;54.00
77351;BME280;66420;50.246;14.320;2023-04-03T09:00:22;100797.06;;;2.98;53.11
77351;BME280;66420;50.246;14.320;2023-04-03T09:03:12;100796.84;;;2.08;53.71
77351;BME280;66420;50.246;14.320;2023-04-03T09:09:29;100787.25;;;3.56;54.08
77351;BME280;66420;50.246;14.320;2023-04-03T09:12:22;100772.75;;;3.51;54.89
77351;BME280;66420;50.246;14.320;2023-04-03T09:18:19;100780.06;;;4.09;54.98
77351;BME280;66420;50.246;14.320;2023-04-03T09:21:17;100785.72;;;3.72;54.34
77351;BME280;66420;50.246;14.320;2023-04-03T09:24:06;100789.47;;;3.18;54.57
77351;BME280;66420;50.246;14.320;2023-04-03T09:29:43;100788.69;;;3.82;55.13
77351;BME280;66420;50.246;14.320;2023-04-03T09:32:32;100774.78;;;3.79;52.88
77351;BME280;66420;50.246;14.320;2023-04-03T09:35:37;100778.53;;;4.13;53.79
77351;BME280;66420;50.246;14.320;2023-04-03T09:38:25;100778.09;;;4.16;49.05
77351;BME280;66420;50.246;14.320;2023-04-03T09:41:17;100772.97;;;4.42;49.73
77351;BME280;66420;50.246;14.320;2023-04-03T09:44:19;100771.59;;;4.80;47.89
77351;BME280;66420;50.246;14.320;2023-04-03T09:47:27;100789.63;;;4.11;48.90
77351;BME280;66420;50.246;14.320;2023-04-03T09:53:05;100789.25;;;4.31;50.06
77351;BME280;66420;50.246;14.320;2023-04-03T09:55:51;100786.09;;;3.99;48.09
77351;BME280;66420;50.246;14.320;2023-04-03T09:58:39;100793.13;;;3.77;48.68
77351;BME280;66420;50.246;14.320;2023-04-03T10:01:29;100779.97;;;4.15;47.45
77351;BME280;66420;50.246;14.320;2023-04-03T10:04:17;100787.16;;;4.73;49.48
77351;BME280;66420;50.246;14.320;2023-04-03T10:07:03;100791.50;;;4.34;48.32
77351;BME280;66420;50.246;14.320;2023-04-03T10:09:58;100773.19;;;3.36;47.36
77351;BME280;66420;50.246;14.320;2023-04-03T10:12:43;100772.44;;;3.82;50.02
77351;BME280;66420;50.246;14.320;2023-04-03T10:15:28;100769.50;;;3.31;46.85
77351;BME280;66420;50.246;14.320;2023-04-03T10:21:23;100788.50;;;3.42;48.79
77351;BME280;66420;50.246;14.320;2023-04-03T10:24:23;100778.78;;;3.65;48.80
77351;BME280;66420;50.246;14.320;2023-04-03T10:27:59;100777.38;;;3.74;49.16
77351;BME280;66420;50.246;14.320;2023-04-03T10:36:54;100774.78;;;5.05;49.11
77351;BME280;66420;50.246;14.320;2023-04-03T10:39:57;100776.31;;;4.21;45.88
77351;BME280;66420;50.246;14.320;2023-04-03T10:50:15;100765.13;;;4.69;49.10
77351;BME280;66420;50.246;14.320;2023-04-03T10:52:35;100768.63;;;4.41;47.42
77351;BME280;66420;50.246;14.320;2023-04-03T10:58:36;100758.03;;;3.58;46.45
77351;BME280;66420;50.246;14.320;2023-04-03T11:01:28;100768.06;;;4.16;46.36
77351;BME280;66420;50.246;14.320;2023-04-03T11:04:17;100760.75;;;4.80;48.26
77351;BME280;66420;50.246;14.320;2023-04-03T11:07:26;100745.22;;;5.20;46.50
77351;BME280;66420;50.246;14.320;2023-04-03T11:10:15;100748.47;;;5.06;44.48
77351;BME280;66420;50.246;14.320;2023-04-03T11:13:24;100754.25;;;4.41;46.23
77351;BME280;66420;50.246;14.320;2023-04-03T11:16:18;100749.91;;;5.25;44.83
77351;BME280;66420;50.246;14.320;2023-04-03T11:19:13;100752.41;;;4.98;44.79
77351;BME280;66420;50.246;14.320;2023-04-03T11:22:32;100742.22;;;5.05;44.48
77351;BME280;66420;50.246;14.320;2023-04-03T11:25:23;100741.44;;;5.55;42.75
77351;BME280;66420;50.246;14.320;2023-04-03T11:28:13;100748.69;;;5.32;43.04
77351;BME280;66420;50.246;14.320;2023-04-03T11:45:54;100725.47;;;5.08;43.29
77351;BME280;66420;50.246;14.320;2023-04-03T11:48:44;100727.72;;;5.00;44.50
77351;BME280;66420;50.246;14.320;2023-04-03T11:57:46;100726.16;;;4.87;45.30
77351;BME280;66420;50.246;14.320;2023-04-03T12:00:51;100718.81;;;4.99;46.80
77351;BME280;66420;50.246;14.320;2023-04-03T12:09:31;100718.31;;;4.74;45.62
77351;BME280;66420;50.246;14.320;2023-04-03T12:12:37;100720.31;;;4.95;46.73
77351;BME280;66420;50.246;14.320;2023-04-03T12:18:43;100712.59;;;4.87;43.79
77351;BME280;66420;50.246;14.320;2023-04-03T12:24:33;100709.31;;;4.85;48.44
77351;BME280;66420;50.246;14.320;2023-04-03T12:27:33;100706.91;;;4.72;46.06
77351;BME280;66420;50.246;14.320;2023-04-03T12:30:23;100700.97;;;5.70;45.01
77351;BME280;66420;50.246;14.320;2023-04-03T12:33:23;100705.25;;;5.32;45.33
77351;BME280;66420;50.246;14.320;2023-04-03T12:36:47;100704.91;;;5.12;45.63
77351;BME280;66420;50.246;14.320;2023-04-03T12:48:53;100698.06;;;4.65;45.95
77351;BME280;66420;50.246;14.320;2023-04-03T12:51:42;100689.22;;;5.48;43.38
77351;BME280;66420;50.246;14.320;2023-04-03T12:54:37;100686.91;;;5.23;43.54
77351;BME280;66420;50.246;14.320;2023-04-03T12:57:26;100692.03;;;5.36;45.06
77351;BME280;66420;50.246;14.320;2023-04-03T13:00:38;100693.97;;;5.07;45.42
77351;BME280;66420;50.246;14.320;2023-04-03T13:03:25;100684.84;;;5.13;46.41
77351;BME280;66420;50.246;14.320;2023-04-03T13:06:18;100682.09;;;4.80;47.18
77351;BME280;66420;50.246;14.320;2023-04-03T13:09:04;100676.66;;;4.52;45.75
77351;BME280;66420;50.246;14.320;2023-04-03T13:11:58;100690.63;;;4.43;47.79
77351;BME280;66420;50.246;14.320;2023-04-03T13:14:54;100687.47;;;4.35;46.51
77351;BME280;66420;50.246;14.320;2023-04-03T13:17:42;100680.06;;;4.30;47.53
77351;BME280;66420;50.246;14.320;2023-04-03T13:20:32;100687.63;;;4.45;47.80
77351;BME280;66420;50.246;14.320;2023-04-03T13:23:20;100688.44;;;4.57;45.77
77351;BME280;66420;50.246;14.320;2023-04-03T13:26:06;100684.81;;;4.40;45.98
77351;BME280;66420;50.246;14.320;2023-04-03T13:28:52;100689.53;;;4.73;47.71
77351;BME280;66420;50.246;14.320;2023-04-03T13:31:38;100686.25;;;4.71;46.95
77351;BME280;66420;50.246;14.320;2023-04-03T13:34:26;100685.28;;;4.49;45.42
77351;BME280;66420;50.246;14.320;2023-04-03T13:37:23;100686.69;;;4.11;47.64
77351;BME280;66420;50.246;14.320;2023-04-03T13:43:16;100684.03;;;4.39;47.97
77351;BME280;66420;50.246;14.320;2023-04-03T13:46:22;100675.59;;;4.24;46.20
77351;BME280;66420;50.246;14.320;2023-04-03T13:55:20;100677.84;;;4.56;45.33
77351;BME280;66420;50.246;14.320;2023-04-03T14:01:01;100668.22;;;4.36;45.65
77351;BME280;66420;50.246;14.320;2023-04-03T14:03:58;100674.88;;;4.17;44.31
77351;BME280;66420;50.246;14.320;2023-04-03T14:06:43;100668.28;;;4.13;46.07
77351;BME280;66420;50.246;14.320;2023-04-03T14:09:28;100675.59;;;4.24;44.98
77351;BME280;66420;50.246;14.320;2023-04-03T14:12:27;100666.78;;;4.45;46.03
77351;BME280;66420;50.246;14.320;2023-04-03T14:15:18;100664.47;;;4.37;46.75
77351;BME280;66420;50.246;14.320;2023-04-03T14:18:04;100668.63;;;4.28;44.67
77351;BME280;66420;50.246;14.320;2023-04-03T14:20:49;100664.47;;;4.37;46.65
77351;BME280;66420;50.246;14.320;2023-04-03T14:23:34;100672.19;;;4.45;45.33
77351;BME280;66420;50.246;14.320;2023-04-03T14:26:21;100664.66;;;4.47;46.00
77351;BME280;66420;50.246;14.320;2023-04-03T14:29:10;100678.44;;;4.46;44.55
77351;BME280;66420;50.246;14.320;2023-04-03T14:31:56;100668.94;;;4.43;44.25
77351;BME280;66420;50.246;14.320;2023-04-03T14:34:41;100663.13;;;4.52;45.76
77351;BME280;66420;50.246;14.320;2023-04-03T14:37:29;100665.91;;;4.28;44.56
77351;BME280;66420;50.246;14.320;2023-04-03T14:40:18;100671.63;;;4.43;45.43
77351;BME280;66420;50.246;14.320;2023-04-03T14:43:05;100669.59;;;4.51;44.52
77351;BME280;66420;50.246;14.320;2023-04-03T14:45:50;100667.41;;;4.36;45.01
77351;BME280;66420;50.246;14.320;2023-04-03T14:48:35;100669.22;;;4.30;45.68
77351;BME280;66420;50.246;14.320;2023-04-03T14:51:20;100670.19;;;4.13;44.31
77351;BME280;66420;50.246;14.320;2023-04-03T14:54:06;100669.38;;;4.12;46.71
77351;BME280;66420;50.246;14.320;2023-04-03T14:56:58;100667.63;;;4.06;46.25
77351;BME280;66420;50.246;14.320;2023-04-03T14:59:45;100662.75;;;4.08;46.64
77351;BME280;66420;50.246;14.320;2023-04-03T15:02:32;100667.16;;;3.86;47.23
77351;BME280;66420;50.246;14.320;2023-04-03T15:05:17;100674.13;;;3.93;46.66
77351;BME280;66420;50.246;14.320;2023-04-03T15:08:03;100670.59;;;3.81;46.97
77351;BME280;66420;50.246;14.320;2023-04-03T15:10:49;100680.22;;;4.00;49.51
77351;BME280;66420;50.246;14.320;2023-04-03T15:13:34;100679.06;;;3.96;45.98
77351;BME280;66420;50.246;14.320;2023-04-03T15:16:19;100683.31;;;3.92;46.00
77351;BME280;66420;50.246;14.320;2023-04-03T15:19:04;100683.66;;;3.96;46.22
77351;BME280;66420;50.246;14.320;2023-04-03T15:21:49;100685.16;;;4.03;46.03
77351;BME280;66420;50.246;14.320;2023-04-03T15:24:34;100688.94;;;4.03;46.34
77351;BME280;66420;50.246;14.320;2023-04-03T15:27:19;100686.59;;;3.83;45.70
77351;BME280;66420;50.246;14.320;2023-04-03T15:30:05;100685.56;;;3.84;45.57
77351;BME280;66420;50.246;14.320;2023-04-03T15:32:51;100692.63;;;3.85;46.12
77351;BME280;66420;50.246;14.320;2023-04-03T15:35:37;100694.38;;;3.91;46.55
77351;BME280;66420;50.246;14.320;2023-04-03T15:38:21;100694.97;;;3.93;46.68
77351;BME280;66420;50.246;14.320;2023-04-03T15:41:06;100692.81;;;3.95;46.59
77351;BME280;66420;50.246;14.320;2023-04-03T15:43:51;100696.75;;;3.76;45.95
77351;BME280;66420;50.246;14.320;2023-04-03T15:46:36;100697.81;;;3.75;46.54
77351;BME280;66420;50.246;14.320;2023-04-03T15:49:21;100690.50;;;3.64;46.67
77351;BME280;66420;50.246;14.320;2023-04-03T15:52:06;100690.97;;;3.61;48.05
77351;BME280;66420;50.246;14.320;2023-04-03T15:54:51;100693.09;;;3.70;48.59
77351;BME280;66420;50.246;14.320;2023-04-03T15:57:36;100692.03;;;3.48;48.75
77351;BME280;66420;50.246;14.320;2023-04-03T16:00:22;100690.50;;;3.64;48.76
77351;BME280;66420;50.246;14.320;2023-04-03T16:03:14;100701.69;;;3.55;47.03
77351;BME280;66420;50.246;14.320;2023-04-03T16:06:00;100700.25;;;3.53;46.84
77351;BME280;66420;50.246;14.320;2023-04-03T16:08:47;100698.97;;;3.55;47.35
77351;BME280;66420;50.246;14.320;2023-04-03T16:11:33;100702.47;;;3.44;44.78
77351;BME280;66420;50.246;14.320;2023-04-03T16:14:20;100697.31;;;3.54;45.89
77351;BME280;66420;50.246;14.320;2023-04-03T16:17:05;100700.47;;;3.40;45.41
77351;BME280;66420;50.246;14.320;2023-04-03T16:19:50;100693.44;;;3.39;46.57
77351;BME280;66420;50.246;14.320;2023-04-03T16:22:35;100694.72;;;3.36;46.76